createdAt,value
2019-04-25T00:01:52.312Z,8.10
2019-04-25T00:04:22.575Z,8.00
2019-04-25T00:06:52.127Z,7.90
2019-04-25T00:09:22.317Z,7.90
2019-04-25T00:11:52.322Z,7.90
2019-04-25T00:14:22.444Z,7.90
2019-04-25T00:16:52.500Z,7.90
2019-04-25T00:19:21.880Z,7.90
2019-04-25T00:21:52.099Z,7.80
2019-04-25T00:24:23.849Z,7.80
2019-04-25T00:26:53.554Z,7.80
2019-04-25T00:29:22.172Z,7.80
2019-04-25T00:31:51.365Z,7.70
2019-04-25T00:34:19.855Z,7.70
2019-04-25T00:36:48.671Z,7.70
2019-04-25T00:39:17.208Z,7.80
2019-04-25T00:41:46.402Z,7.80
2019-04-25T00:44:15.082Z,7.80
2019-04-25T00:46:47.830Z,7.80
2019-04-25T00:49:13.599Z,7.80
2019-04-25T00:51:43.463Z,7.70
2019-04-25T00:54:12.270Z,7.70
2019-04-25T00:56:43.289Z,7.70
2019-04-25T00:59:15.547Z,7.60
2019-04-25T01:01:52.979Z,7.70
2019-04-25T01:04:23.411Z,7.60
2019-04-25T01:06:52.895Z,7.60
2019-04-25T01:09:22.230Z,7.50
2019-04-25T01:11:52.095Z,7.50
2019-04-25T01:14:21.805Z,7.50
2019-04-25T01:16:51.244Z,7.50
2019-04-25T01:19:20.694Z,7.50
2019-04-25T01:21:49.223Z,7.60
2019-04-25T01:24:18.075Z,7.50
2019-04-25T01:26:47.490Z,7.50
2019-04-25T01:29:16.160Z,7.50
2019-04-25T01:31:44.754Z,7.50
2019-04-25T01:34:14.270Z,7.50
2019-04-25T01:36:44.400Z,7.50
2019-04-25T01:39:26.353Z,7.40
2019-04-25T01:42:08.293Z,7.50
2019-04-25T01:44:38.336Z,7.30
2019-04-25T01:47:06.871Z,7.30
2019-04-25T01:49:35.285Z,7.30
2019-04-25T01:52:04.952Z,7.30
2019-04-25T01:54:33.946Z,7.30
2019-04-25T01:57:04.177Z,7.20
2019-04-25T01:59:33.797Z,7.20
2019-04-25T02:02:03.754Z,7.20
2019-04-25T02:04:34.153Z,7.20
2019-04-25T02:07:03.632Z,7.20
2019-04-25T02:09:33.723Z,7.20
2019-04-25T02:12:09.353Z,7.10
2019-04-25T02:14:37.820Z,7.20
2019-04-25T02:17:06.212Z,7.20
2019-04-25T02:19:35.758Z,7.20
2019-04-25T02:22:04.615Z,7.20
2019-04-25T02:24:33.863Z,7.10
2019-04-25T02:27:04.412Z,7.10
2019-04-25T02:29:33.279Z,7.20
2019-04-25T02:32:06.999Z,7.20
2019-04-25T02:34:34.351Z,7.20
2019-04-25T02:37:07.140Z,7.10
2019-04-25T02:39:36.737Z,7.00
2019-04-25T02:42:07.847Z,7.00
2019-04-25T02:44:36.426Z,7.00
2019-04-25T02:47:09.199Z,6.90
2019-04-25T02:49:41.880Z,7.00
2019-04-25T02:52:20.644Z,7.00
2019-04-25T02:54:49.065Z,7.00
2019-04-25T02:57:17.452Z,7.00
2019-04-25T02:59:45.852Z,7.00
2019-04-25T03:02:15.392Z,7.00
2019-04-25T03:04:44.614Z,6.90
2019-04-25T03:07:17.007Z,7.00
2019-04-25T03:09:45.059Z,7.10
2019-04-25T03:12:26.936Z,7.10
2019-04-25T03:14:44.655Z,7.00
2019-04-25T03:17:14.281Z,6.90
2019-04-25T03:19:44.619Z,6.90
2019-04-25T03:22:15.254Z,6.90
2019-04-25T03:24:45.721Z,6.90
2019-04-25T03:27:14.251Z,6.90
2019-04-25T03:29:44.331Z,7.00
2019-04-25T03:32:16.396Z,6.90
2019-04-25T03:34:43.490Z,7.00
2019-04-25T03:37:13.634Z,7.10
2019-04-25T03:39:43.680Z,7.10
2019-04-25T03:42:12.141Z,7.20
2019-04-25T03:44:40.537Z,7.20
2019-04-25T03:47:09.701Z,7.30
2019-04-25T03:49:38.319Z,7.40
2019-04-25T03:52:06.727Z,7.30
2019-04-25T03:54:35.140Z,7.20
2019-04-25T03:57:05.272Z,7.20
2019-04-25T03:59:33.716Z,7.10
2019-04-25T04:02:03.194Z,7.10
2019-04-25T04:04:33.504Z,7.00
2019-04-25T04:07:05.827Z,6.90
2019-04-25T04:09:33.702Z,6.90
2019-04-25T04:12:04.291Z,6.90
2019-04-25T04:14:33.826Z,6.90
2019-04-25T04:17:10.712Z,6.90
2019-04-25T04:19:45.259Z,7.10
2019-04-25T04:22:20.983Z,7.10
2019-04-25T04:24:51.030Z,7.10
2019-04-25T04:27:19.448Z,7.10
2019-04-25T04:29:47.910Z,7.10
2019-04-25T04:32:17.279Z,7.10
2019-04-25T04:34:45.906Z,7.10
2019-04-25T04:37:15.825Z,7.10
2019-04-25T04:40:05.003Z,7.10
2019-04-25T04:42:33.719Z,7.10
2019-04-25T04:45:03.595Z,7.10
2019-04-25T04:47:33.287Z,7.10
2019-04-25T04:50:03.753Z,7.10
2019-04-25T04:52:33.994Z,7.10
2019-04-25T04:55:06.384Z,7.10
2019-04-25T04:57:36.174Z,7.20
2019-04-25T05:00:08.031Z,7.20
2019-04-25T05:02:38.059Z,7.40
2019-04-25T05:05:15.748Z,7.50
2019-04-25T05:07:51.602Z,7.60
2019-04-25T05:10:20.137Z,7.70
2019-04-25T05:12:48.555Z,7.70
2019-04-25T05:15:18.227Z,7.80
2019-04-25T05:17:47.292Z,7.90
2019-04-25T05:20:17.462Z,7.80
2019-04-25T05:22:45.867Z,7.90
2019-04-25T05:25:16.256Z,8.00
2019-04-25T05:27:57.768Z,8.00
2019-04-25T05:30:19.374Z,8.10
2019-04-25T05:32:47.876Z,8.10
2019-04-25T05:35:17.803Z,8.20
2019-04-25T05:37:46.319Z,8.20
2019-04-25T05:40:16.225Z,8.40
2019-04-25T05:42:46.710Z,8.40
2019-04-25T05:45:17.520Z,8.50
2019-04-25T05:47:45.839Z,8.60
2019-04-25T05:50:15.680Z,8.70
2019-04-25T05:52:45.990Z,8.80
2019-04-25T05:55:17.553Z,8.90
2019-04-25T05:57:49.627Z,9.00
2019-04-25T06:00:15.250Z,9.10
2019-04-25T06:02:44.295Z,9.20
2019-04-25T06:05:13.847Z,9.40
2019-04-25T06:07:43.245Z,9.50
2019-04-25T06:10:17.383Z,9.70
2019-04-25T06:12:50.890Z,9.80
2019-04-25T06:15:21.683Z,10.00
2019-04-25T06:17:53.414Z,10.20
2019-04-25T06:20:24.684Z,10.30
2019-04-25T06:22:55.621Z,10.50
2019-04-25T06:25:32.099Z,10.70
2019-04-25T06:28:00.386Z,10.80
2019-04-25T06:30:29.686Z,11.00
2019-04-25T06:32:58.689Z,11.30
2019-04-25T06:35:27.574Z,11.70
2019-04-25T06:37:56.037Z,12.00
2019-04-25T06:40:26.316Z,12.30
2019-04-25T06:42:55.569Z,12.70
2019-04-25T06:45:26.680Z,13.00
2019-04-25T06:47:56.863Z,13.40
2019-04-25T06:50:26.222Z,13.60
2019-04-25T06:52:55.430Z,13.90
2019-04-25T06:55:26.003Z,14.10
2019-04-25T06:57:54.060Z,14.40
2019-04-25T07:00:26.256Z,14.50
2019-04-25T07:02:53.247Z,14.70
2019-04-25T07:05:30.589Z,15.00
2019-04-25T07:07:53.459Z,15.20
2019-04-25T07:10:24.177Z,15.40
2019-04-25T07:12:52.121Z,15.60
2019-04-25T07:15:20.641Z,15.80
2019-04-25T07:17:49.123Z,16.00
2019-04-25T07:20:19.057Z,16.10
2019-04-25T07:22:47.469Z,16.30
2019-04-25T07:25:16.257Z,16.40
2019-04-25T07:28:01.349Z,16.60
2019-04-25T07:30:51.632Z,16.90
2019-04-25T07:33:19.419Z,17.00
2019-04-25T07:35:47.809Z,17.20
2019-04-25T07:38:16.228Z,17.30
2019-04-25T07:40:44.620Z,17.50
2019-04-25T07:43:13.458Z,17.70
2019-04-25T07:45:43.467Z,17.80
2019-04-25T07:48:13.822Z,18.00
2019-04-25T07:50:43.821Z,18.20
2019-04-25T07:53:14.252Z,18.40
2019-04-25T07:55:43.281Z,18.50
2019-04-25T07:58:12.071Z,18.60
2019-04-25T08:00:40.468Z,18.70
2019-04-25T08:03:08.951Z,18.90
2019-04-25T08:05:37.880Z,19.00
2019-04-25T08:08:06.409Z,19.00
2019-04-25T08:10:40.619Z,19.20
2019-04-25T08:13:09.038Z,19.40
2019-04-25T08:15:39.080Z,19.50
2019-04-25T08:18:09.261Z,19.70
2019-04-25T08:20:37.790Z,19.90
2019-04-25T08:23:06.359Z,20.00
2019-04-25T08:25:37.710Z,20.00
2019-04-25T08:28:05.024Z,20.20
2019-04-25T08:30:35.265Z,20.40
2019-04-25T08:33:04.160Z,20.60
2019-04-25T08:35:35.171Z,20.70
2019-04-25T08:38:05.876Z,20.90
2019-04-25T08:40:36.979Z,21.10
2019-04-25T08:43:04.842Z,21.20
2019-04-25T08:45:35.277Z,21.20
2019-04-25T08:48:03.694Z,21.40
2019-04-25T08:50:49.815Z,21.50
2019-04-25T08:53:18.218Z,21.60
2019-04-25T08:55:48.245Z,21.70
2019-04-25T08:58:20.696Z,21.70
2019-04-25T09:01:00.684Z,21.80
2019-04-25T09:03:32.343Z,21.80
2019-04-25T09:06:01.189Z,21.90
2019-04-25T09:08:29.624Z,22.10
2019-04-25T09:11:17.433Z,22.20
2019-04-25T09:13:45.841Z,22.40
2019-04-25T09:16:15.487Z,22.60
2019-04-25T09:18:45.227Z,22.70
2019-04-25T09:21:13.875Z,22.70
2019-04-25T09:23:43.717Z,22.80
2019-04-25T09:26:14.159Z,22.90
2019-04-25T09:28:45.290Z,23.00
2019-04-25T09:31:13.985Z,23.10
2019-04-25T09:33:43.856Z,23.30
2019-04-25T09:36:14.152Z,23.40
2019-04-25T09:38:45.108Z,23.50
2019-04-25T09:41:13.881Z,23.60
2019-04-25T09:43:44.218Z,23.70
2019-04-25T09:46:24.320Z,23.80
2019-04-25T09:48:57.114Z,24.00
2019-04-25T09:51:29.864Z,23.90
2019-04-25T09:54:03.522Z,24.00
2019-04-25T09:56:36.671Z,24.10
2019-04-25T09:59:27.252Z,24.30
2019-04-25T10:01:49.505Z,24.50
2019-04-25T10:04:18.341Z,24.60
2019-04-25T10:06:47.568Z,24.70
2019-04-25T10:09:16.234Z,24.70
2019-04-25T10:11:45.407Z,24.80
2019-04-25T10:14:27.069Z,24.80
2019-04-25T10:16:55.462Z,24.90
2019-04-25T10:19:23.871Z,24.90
2019-04-25T10:21:55.021Z,25.00
2019-04-25T10:24:22.464Z,25.10
2019-04-25T10:26:50.927Z,25.30
2019-04-25T10:29:19.330Z,25.40
2019-04-25T10:31:47.771Z,25.60
2019-04-25T10:34:16.286Z,25.80
2019-04-25T10:36:45.432Z,25.90
2019-04-25T10:39:14.636Z,25.90
2019-04-25T10:41:46.104Z,26.10
2019-04-25T10:44:14.148Z,26.20
2019-04-25T10:46:45.692Z,26.30
2019-04-25T10:49:14.483Z,26.50
2019-04-25T10:51:44.751Z,26.40
2019-04-25T10:54:14.550Z,26.40
2019-04-25T10:56:45.744Z,26.50
2019-04-25T10:59:14.495Z,26.70
2019-04-25T11:01:44.703Z,26.70
2019-04-25T11:04:14.910Z,26.80
2019-04-25T11:06:45.337Z,26.90
2019-04-25T11:09:18.167Z,27.00
2019-04-25T11:11:46.555Z,27.10
2019-04-25T11:14:15.035Z,27.10
2019-04-25T11:16:45.567Z,27.10
2019-04-25T11:19:15.330Z,27.10
2019-04-25T11:21:45.278Z,27.00
2019-04-25T11:24:14.370Z,27.10
2019-04-25T11:26:44.675Z,27.10
2019-04-25T11:29:13.320Z,27.10
2019-04-25T11:31:45.726Z,27.10
2019-04-25T11:34:15.009Z,27.20
2019-04-25T11:36:44.000Z,27.30
2019-04-25T11:39:33.649Z,27.50
2019-04-25T11:42:02.281Z,27.60
2019-04-25T11:44:30.753Z,27.60
2019-04-25T11:46:59.148Z,27.70
2019-04-25T11:49:27.622Z,27.60
2019-04-25T11:51:56.150Z,27.70
2019-04-25T11:54:24.631Z,27.80
2019-04-25T11:56:54.718Z,27.80
2019-04-25T11:59:23.581Z,27.80
2019-04-25T12:01:52.349Z,27.90
2019-04-25T12:04:20.900Z,27.90
2019-04-25T12:06:49.292Z,28.10
2019-04-25T12:09:18.929Z,28.10
2019-04-25T12:11:48.530Z,28.10
2019-04-25T12:14:17.379Z,27.90
2019-04-25T12:16:48.470Z,27.90
2019-04-25T12:19:15.917Z,27.80
2019-04-25T12:21:44.703Z,27.90
2019-04-25T12:24:13.700Z,28.00
2019-04-25T12:26:45.293Z,28.00
2019-04-25T12:29:14.216Z,28.00
2019-04-25T12:31:44.230Z,28.10
2019-04-25T12:34:14.171Z,28.00
2019-04-25T12:36:44.195Z,28.00
2019-04-25T12:39:13.992Z,28.00
2019-04-25T12:41:45.575Z,28.10
2019-04-25T12:44:14.386Z,28.30
2019-04-25T12:46:48.434Z,28.40
2019-04-25T12:49:16.958Z,28.30
2019-04-25T12:51:45.489Z,28.20
2019-04-25T12:54:14.929Z,28.00
2019-04-25T12:56:43.444Z,28.00
2019-04-25T12:59:11.851Z,28.00
2019-04-25T13:01:40.316Z,28.00
2019-04-25T13:04:08.715Z,28.00
2019-04-25T13:06:37.139Z,27.70
2019-04-25T13:09:07.076Z,27.80
2019-04-25T13:11:35.665Z,27.60
2019-04-25T13:14:04.116Z,27.60
2019-04-25T13:16:34.149Z,27.70
2019-04-25T13:19:13.561Z,27.90
2019-04-25T13:21:33.428Z,27.90
2019-04-25T13:24:02.969Z,27.90
2019-04-25T13:26:33.715Z,28.10
2019-04-25T13:29:05.123Z,28.00
2019-04-25T13:31:35.335Z,27.90
2019-04-25T13:34:05.897Z,27.90
2019-04-25T13:36:34.781Z,28.00
2019-04-25T13:39:05.557Z,28.00
2019-04-25T13:41:34.058Z,28.20
2019-04-25T13:44:03.549Z,28.30
2019-04-25T13:46:34.196Z,28.20
2019-04-25T13:49:04.265Z,28.10
2019-04-25T13:51:33.286Z,28.10
2019-04-25T13:54:01.857Z,28.20
2019-04-25T13:56:30.688Z,28.10
2019-04-25T13:58:59.264Z,28.10
2019-04-25T14:01:27.712Z,28.20
2019-04-25T14:03:56.142Z,28.20
2019-04-25T14:06:24.706Z,28.30
2019-04-25T14:08:53.498Z,28.30
2019-04-25T14:11:23.943Z,28.10
2019-04-25T14:13:52.615Z,28.20
2019-04-25T14:16:25.340Z,28.30
2019-04-25T14:18:54.439Z,28.60
2019-04-25T14:21:24.776Z,28.60
2019-04-25T14:23:54.092Z,28.80
2019-04-25T14:26:23.007Z,29.00
2019-04-25T14:28:51.420Z,29.10
2019-04-25T14:31:33.586Z,29.20
2019-04-25T14:33:51.743Z,29.30
2019-04-25T14:36:20.311Z,29.20
2019-04-25T14:38:48.735Z,29.00
2019-04-25T14:41:17.131Z,29.00
2019-04-25T14:43:46.492Z,29.10
2019-04-25T14:46:15.006Z,29.30
2019-04-25T14:48:43.419Z,29.50
2019-04-25T14:51:11.810Z,29.60
2019-04-25T14:53:40.235Z,29.40
2019-04-25T14:56:10.265Z,29.30
2019-04-25T14:58:40.251Z,29.20
2019-04-25T15:01:08.739Z,29.30
2019-04-25T15:03:37.126Z,29.10
2019-04-25T15:06:05.601Z,28.80
2019-04-25T15:08:34.066Z,28.70
2019-04-25T15:11:23.124Z,28.60
2019-04-25T15:13:51.654Z,28.70
2019-04-25T15:16:20.144Z,28.80
2019-04-25T15:18:48.526Z,28.70
2019-04-25T15:21:18.760Z,28.80
2019-04-25T15:23:59.405Z,28.90
2019-04-25T15:26:17.266Z,29.10
2019-04-25T15:28:45.696Z,29.00
2019-04-25T15:31:14.165Z,29.00
2019-04-25T15:33:42.566Z,28.90
2019-04-25T15:36:12.613Z,28.80
2019-04-25T15:38:51.382Z,28.90
2019-04-25T15:41:37.316Z,29.00
2019-04-25T15:44:19.796Z,29.00
2019-04-25T15:46:49.840Z,29.10
2019-04-25T15:49:18.235Z,28.90
2019-04-25T15:51:46.645Z,28.90
2019-04-25T15:54:15.064Z,28.70
2019-04-25T15:56:43.446Z,28.40
2019-04-25T15:59:11.927Z,28.10
2019-04-25T16:01:40.332Z,28.00
2019-04-25T16:04:08.748Z,27.90
2019-04-25T16:06:37.130Z,27.70
2019-04-25T16:09:06.589Z,27.60
2019-04-25T16:11:35.153Z,27.60
2019-04-25T16:14:03.777Z,27.60
2019-04-25T16:16:33.165Z,27.60
2019-04-25T16:19:01.837Z,27.50
2019-04-25T16:21:30.990Z,27.40
2019-04-25T16:23:59.598Z,27.30
2019-04-25T16:26:28.098Z,27.10
2019-04-25T16:28:56.463Z,26.90
2019-04-25T16:31:26.131Z,26.80
2019-04-25T16:33:54.623Z,26.90
2019-04-25T16:36:23.025Z,27.00
2019-04-25T16:38:51.530Z,27.10
2019-04-25T16:41:20.287Z,26.90
2019-04-25T16:43:50.333Z,26.90
2019-04-25T16:46:19.506Z,26.90
2019-04-25T16:48:47.920Z,26.90
2019-04-25T16:51:16.985Z,27.00
2019-04-25T16:53:45.465Z,27.10
2019-04-25T16:56:13.931Z,27.00
2019-04-25T16:58:42.414Z,27.20
2019-04-25T17:01:14.258Z,27.10
2019-04-25T17:03:43.498Z,27.00
2019-04-25T17:06:12.151Z,27.00
2019-04-25T17:08:40.579Z,26.80
2019-04-25T17:11:09.040Z,26.80
2019-04-25T17:13:39.092Z,26.60
2019-04-25T17:16:20.979Z,26.60
2019-04-25T17:18:53.513Z,26.50
2019-04-25T17:21:22.084Z,26.30
2019-04-25T17:23:50.912Z,26.20
2019-04-25T17:26:19.313Z,26.00
2019-04-25T17:28:49.367Z,25.90
2019-04-25T17:31:32.419Z,25.60
2019-04-25T17:34:19.344Z,25.50
2019-04-25T17:36:49.376Z,25.30
2019-04-25T17:39:22.286Z,25.20
2019-04-25T17:41:50.689Z,25.10
2019-04-25T17:44:19.073Z,25.00
2019-04-25T17:46:47.494Z,25.00
2019-04-25T17:49:15.890Z,25.00
2019-04-25T17:51:44.291Z,24.90
2019-04-25T17:54:12.691Z,24.90
2019-04-25T17:56:41.107Z,24.90
2019-04-25T17:59:09.532Z,24.90
2019-04-25T18:01:38.002Z,24.90
2019-04-25T18:04:06.479Z,24.90
2019-04-25T18:06:35.660Z,24.80
2019-04-25T18:09:05.591Z,24.70
2019-04-25T18:11:34.791Z,24.60
2019-04-25T18:14:03.270Z,24.60
2019-04-25T18:16:34.693Z,24.40
2019-04-25T18:19:07.410Z,24.20
2019-04-25T18:21:36.750Z,24.00
2019-04-25T18:24:09.853Z,23.80
2019-04-25T18:26:39.910Z,23.30
2019-04-25T18:29:09.926Z,22.80
2019-04-25T18:31:38.317Z,22.50
2019-04-25T18:34:17.272Z,21.90
2019-04-25T18:37:02.148Z,21.60
2019-04-25T18:39:32.175Z,21.10
2019-04-25T18:42:08.195Z,20.70
2019-04-25T18:44:36.726Z,20.40
2019-04-25T18:47:05.434Z,20.10
2019-04-25T18:49:33.845Z,20.10
2019-04-25T18:52:06.794Z,20.10
2019-04-25T18:54:39.558Z,20.00
2019-04-25T18:57:12.415Z,19.80
2019-04-25T18:59:46.009Z,19.60
2019-04-25T19:02:32.389Z,19.30
2019-04-25T19:05:05.209Z,19.10
2019-04-25T19:07:33.639Z,18.90
2019-04-25T19:10:02.038Z,18.80
2019-04-25T19:12:31.461Z,18.50
2019-04-25T19:14:59.897Z,18.30
2019-04-25T19:17:28.290Z,18.10
2019-04-25T19:19:56.692Z,18.00
2019-04-25T19:22:25.361Z,17.80
2019-04-25T19:24:53.750Z,17.70
2019-04-25T19:27:23.934Z,17.60
2019-04-25T19:29:53.449Z,17.50
2019-04-25T19:32:21.974Z,17.30
2019-04-25T19:34:53.354Z,17.10
2019-04-25T19:37:21.797Z,17.00
2019-04-25T19:40:08.413Z,16.80
2019-04-25T19:42:38.470Z,16.60
2019-04-25T19:45:07.474Z,16.40
2019-04-25T19:47:35.902Z,16.30
2019-04-25T19:50:05.226Z,16.20
2019-04-25T19:52:33.654Z,16.10
2019-04-25T19:55:02.086Z,16.00
2019-04-25T19:57:30.482Z,15.80
2019-04-25T19:59:58.952Z,15.70
2019-04-25T20:02:28.987Z,15.50
2019-04-25T20:04:59.038Z,15.40
2019-04-25T20:07:32.062Z,15.30
2019-04-25T20:10:11.607Z,15.10
2019-04-25T20:12:50.537Z,15.00
2019-04-25T20:15:17.753Z,14.80
2019-04-25T20:17:46.176Z,14.70
2019-04-25T20:20:14.629Z,14.60
2019-04-25T20:22:43.771Z,14.40
2019-04-25T20:25:13.660Z,14.30
2019-04-25T20:27:42.063Z,14.20
2019-04-25T20:30:10.717Z,14.20
2019-04-25T20:32:39.124Z,14.10
2019-04-25T20:35:07.755Z,14.00
2019-04-25T20:37:36.618Z,13.90
2019-04-25T20:40:07.142Z,13.90
2019-04-25T20:42:35.548Z,13.80
2019-04-25T20:45:06.087Z,13.80
2019-04-25T20:47:34.513Z,13.70
2019-04-25T20:50:03.181Z,13.70
2019-04-25T20:52:31.689Z,13.60
2019-04-25T20:55:00.138Z,13.60
2019-04-25T20:57:28.523Z,13.60
2019-04-25T20:59:56.927Z,13.60
2019-04-25T21:02:25.310Z,13.50
2019-04-25T21:04:54.225Z,13.50
2019-04-25T21:07:22.691Z,13.50
2019-04-25T21:09:51.244Z,13.30
2019-04-25T21:12:19.617Z,13.20
2019-04-25T21:14:52.785Z,13.10
2019-04-25T21:17:22.890Z,13.10
2019-04-25T21:19:52.947Z,13.00
2019-04-25T21:22:21.352Z,13.00
2019-04-25T21:24:50.539Z,12.90
2019-04-25T21:27:20.020Z,12.90
2019-04-25T21:29:48.507Z,12.80
2019-04-25T21:32:18.549Z,12.80
2019-04-25T21:34:46.964Z,12.70
2019-04-25T21:37:15.745Z,12.70
2019-04-25T21:39:55.858Z,12.70
2019-04-25T21:42:41.607Z,12.60
2019-04-25T21:45:10.527Z,12.60
2019-04-25T21:47:38.922Z,12.50
2019-04-25T21:50:07.747Z,12.50
2019-04-25T21:52:36.421Z,12.40
2019-04-25T21:55:06.861Z,12.40
2019-04-25T21:57:35.531Z,12.40
2019-04-25T22:00:09.209Z,12.30
2019-04-25T22:02:38.104Z,12.30
2019-04-25T22:05:07.128Z,12.20
2019-04-25T22:07:35.790Z,12.10
2019-04-25T22:10:06.925Z,12.10
2019-04-25T22:12:35.376Z,12.00
2019-04-25T22:15:06.381Z,12.00
2019-04-25T22:17:34.769Z,12.00
2019-04-25T22:20:04.796Z,12.00
2019-04-25T22:22:33.357Z,12.00
2019-04-25T22:25:02.589Z,11.90
2019-04-25T22:27:32.691Z,11.90
2019-04-25T22:30:01.470Z,11.80
2019-04-25T22:32:31.883Z,11.80
2019-04-25T22:35:01.931Z,11.80
2019-04-25T22:37:30.331Z,11.80
2019-04-25T22:39:59.856Z,11.80
2019-04-25T22:42:28.314Z,11.80
2019-04-25T22:44:56.784Z,11.80
2019-04-25T22:47:25.183Z,11.70
2019-04-25T22:49:53.582Z,11.70
2019-04-25T22:52:22.246Z,11.60
2019-04-25T22:54:50.659Z,11.50
2019-04-25T22:57:19.332Z,11.50
2019-04-25T22:59:47.734Z,11.40
2019-04-25T23:02:29.552Z,11.40
2019-04-25T23:05:09.118Z,11.30
2019-04-25T23:07:30.004Z,11.30
2019-04-25T23:09:58.946Z,11.20
2019-04-25T23:12:27.631Z,11.10
2019-04-25T23:14:56.031Z,11.00
2019-04-25T23:17:24.451Z,10.90
2019-04-25T23:19:53.124Z,10.80
2019-04-25T23:22:21.531Z,10.70
2019-04-25T23:24:54.962Z,10.60
2019-04-25T23:27:40.052Z,10.50
2019-04-25T23:30:10.349Z,10.50
2019-04-25T23:32:39.218Z,10.50
2019-04-25T23:35:22.147Z,10.50
2019-04-25T23:37:37.879Z,10.40
2019-04-25T23:40:07.660Z,10.50
2019-04-25T23:42:36.222Z,10.50
2019-04-25T23:45:07.990Z,10.40
2019-04-25T23:47:37.519Z,10.30
2019-04-25T23:50:08.667Z,10.20
2019-04-25T23:52:37.453Z,10.10
2019-04-25T23:55:06.951Z,9.90
2019-04-25T23:57:36.364Z,9.80
